sensor_id;sensor_type;location;lat;lon;timestamp;P1;durP1;ratioP1;P2;durP2;ratioP2
37701;SDS011;23548;51.196;6.838;2023-05-03T00:00:16;12.32;;;7.30;;
37701;SDS011;23548;51.196;6.838;2023-05-03T00:02:42;12.50;;;7.47;;
37701;SDS011;23548;51.196;6.838;2023-05-03T00:05:08;13.20;;;7.72;;
37701;SDS011;23548;51.196;6.838;2023-05-03T00:07:42;14.63;;;7.97;;
37701;SDS011;23548;51.196;6.838;2023-05-03T00:10:09;12.30;;;7.60;;
37701;SDS011;23548;51.196;6.838;2023-05-03T00:12:37;12.57;;;7.38;;
37701;SDS011;23548;51.196;6.838;2023-05-03T00:15:04;11.02;;;7.55;;
37701;SDS011;23548;51.196;6.838;2023-05-03T00:17:31;15.82;;;8.30;;
37701;SDS011;23548;51.196;6.838;2023-05-03T00:19:57;17.60;;;8.40;;
37701;SDS011;23548;51.196;6.838;2023-05-03T00:22:23;12.98;;;7.45;;
37701;SDS011;23548;51.196;6.838;2023-05-03T00:24:49;14.43;;;8.65;;
37701;SDS011;23548;51.196;6.838;2023-05-03T00:27:15;19.45;;;7.82;;
37701;SDS011;23548;51.196;6.838;2023-05-03T00:29:42;16.73;;;8.38;;
37701;SDS011;23548;51.196;6.838;2023-05-03T00:32:07;16.13;;;8.75;;
37701;SDS011;23548;51.196;6.838;2023-05-03T00:34:35;13.65;;;8.32;;
37701;SDS011;23548;51.196;6.838;2023-05-03T00:37:01;15.25;;;8.75;;
37701;SDS011;23548;51.196;6.838;2023-05-03T00:39:30;13.20;;;8.18;;
37701;SDS011;23548;51.196;6.838;2023-05-03T00:42:00;13.93;;;8.43;;
37701;SDS011;23548;51.196;6.838;2023-05-03T00:44:28;15.60;;;7.80;;
37701;SDS011;23548;51.196;6.838;2023-05-03T00:46:54;16.77;;;8.30;;
37701;SDS011;23548;51.196;6.838;2023-05-03T00:49:23;16.08;;;7.88;;
37701;SDS011;23548;51.196;6.838;2023-05-03T00:51:50;16.55;;;8.43;;
37701;SDS011;23548;51.196;6.838;2023-05-03T00:54:17;17.40;;;8.30;;
37701;SDS011;23548;51.196;6.838;2023-05-03T00:56:44;14.35;;;8.20;;
37701;SDS011;23548;51.196;6.838;2023-05-03T00:59:11;15.93;;;8.25;;
37701;SDS011;23548;51.196;6.838;2023-05-03T01:01:36;17.20;;;9.10;;
37701;SDS011;23548;51.196;6.838;2023-05-03T01:04:03;18.27;;;8.55;;
37701;SDS011;23548;51.196;6.838;2023-05-03T01:17:16;15.43;;;7.93;;
37701;SDS011;23548;51.196;6.838;2023-05-03T01:19:50;14.65;;;8.45;;
37701;SDS011;23548;51.196;6.838;2023-05-03T01:22:31;16.08;;;9.18;;
37701;SDS011;23548;51.196;6.838;2023-05-03T01:25:07;17.40;;;9.35;;
37701;SDS011;23548;51.196;6.838;2023-05-03T01:27:37;18.27;;;8.63;;
37701;SDS011;23548;51.196;6.838;2023-05-03T01:30:05;14.48;;;8.18;;
37701;SDS011;23548;51.196;6.838;2023-05-03T01:32:51;15.60;;;8.27;;
37701;SDS011;23548;51.196;6.838;2023-05-03T01:38:11;14.63;;;8.70;;
37701;SDS011;23548;51.196;6.838;2023-05-03T01:40:42;14.98;;;8.80;;
37701;SDS011;23548;51.196;6.838;2023-05-03T01:46:08;11.93;;;7.55;;
37701;SDS011;23548;51.196;6.838;2023-05-03T01:48:35;15.45;;;8.40;;
37701;SDS011;23548;51.196;6.838;2023-05-03T01:51:00;12.20;;;7.50;;
37701;SDS011;23548;51.196;6.838;2023-05-03T01:53:26;16.63;;;7.28;;
37701;SDS011;23548;51.196;6.838;2023-05-03T01:55:52;13.95;;;7.40;;
37701;SDS011;23548;51.196;6.838;2023-05-03T01:58:18;15.60;;;7.25;;
37701;SDS011;23548;51.196;6.838;2023-05-03T02:00:44;13.55;;;7.00;;
37701;SDS011;23548;51.196;6.838;2023-05-03T02:03:10;13.80;;;7.03;;
37701;SDS011;23548;51.196;6.838;2023-05-03T02:05:36;12.35;;;7.45;;
37701;SDS011;23548;51.196;6.838;2023-05-03T02:08:02;12.18;;;7.13;;
37701;SDS011;23548;51.196;6.838;2023-05-03T02:10:27;14.10;;;7.43;;
37701;SDS011;23548;51.196;6.838;2023-05-03T02:12:53;12.00;;;7.18;;
37701;SDS011;23548;51.196;6.838;2023-05-03T02:15:19;16.40;;;7.03;;
37701;SDS011;23548;51.196;6.838;2023-05-03T02:17:45;13.10;;;7.35;;
37701;SDS011;23548;51.196;6.838;2023-05-03T02:20:11;17.60;;;6.88;;
37701;SDS011;23548;51.196;6.838;2023-05-03T02:22:37;15.85;;;8.00;;
37701;SDS011;23548;51.196;6.838;2023-05-03T02:25:03;14.68;;;7.10;;
37701;SDS011;23548;51.196;6.838;2023-05-03T02:27:30;15.82;;;7.78;;
37701;SDS011;23548;51.196;6.838;2023-05-03T02:29:56;13.30;;;7.50;;
37701;SDS011;23548;51.196;6.838;2023-05-03T02:32:22;14.20;;;7.15;;
37701;SDS011;23548;51.196;6.838;2023-05-03T02:34:48;16.35;;;7.57;;
37701;SDS011;23548;51.196;6.838;2023-05-03T02:37:14;16.52;;;8.10;;
37701;SDS011;23548;51.196;6.838;2023-05-03T02:39:40;17.13;;;8.63;;
37701;SDS011;23548;51.196;6.838;2023-05-03T02:42:06;16.50;;;8.07;;
37701;SDS011;23548;51.196;6.838;2023-05-03T02:44:32;13.30;;;7.68;;
37701;SDS011;23548;51.196;6.838;2023-05-03T02:46:57;16.80;;;8.10;;
37701;SDS011;23548;51.196;6.838;2023-05-03T02:49:23;17.90;;;7.85;;
37701;SDS011;23548;51.196;6.838;2023-05-03T02:51:50;12.27;;;8.02;;
37701;SDS011;23548;51.196;6.838;2023-05-03T02:54:17;17.50;;;8.50;;
37701;SDS011;23548;51.196;6.838;2023-05-03T02:56:43;16.27;;;7.57;;
37701;SDS011;23548;51.196;6.838;2023-05-03T02:59:08;14.20;;;8.48;;
37701;SDS011;23548;51.196;6.838;2023-05-03T03:01:34;15.63;;;9.02;;
37701;SDS011;23548;51.196;6.838;2023-05-03T03:04:00;17.00;;;8.95;;
37701;SDS011;23548;51.196;6.838;2023-05-03T03:06:25;15.23;;;8.65;;
37701;SDS011;23548;51.196;6.838;2023-05-03T03:08:52;17.83;;;8.65;;
37701;SDS011;23548;51.196;6.838;2023-05-03T03:11:17;14.30;;;8.05;;
37701;SDS011;23548;51.196;6.838;2023-05-03T03:13:43;17.10;;;8.77;;
37701;SDS011;23548;51.196;6.838;2023-05-03T03:16:09;16.33;;;8.52;;
37701;SDS011;23548;51.196;6.838;2023-05-03T03:18:35;18.02;;;8.98;;
37701;SDS011;23548;51.196;6.838;2023-05-03T03:21:01;16.75;;;9.18;;
37701;SDS011;23548;51.196;6.838;2023-05-03T03:23:27;17.92;;;9.32;;
37701;SDS011;23548;51.196;6.838;2023-05-03T03:25:52;23.63;;;9.50;;
37701;SDS011;23548;51.196;6.838;2023-05-03T03:28:18;13.77;;;8.75;;
37701;SDS011;23548;51.196;6.838;2023-05-03T03:30:44;21.58;;;9.00;;
37701;SDS011;23548;51.196;6.838;2023-05-03T03:33:10;14.07;;;8.82;;
37701;SDS011;23548;51.196;6.838;2023-05-03T03:35:36;19.83;;;8.98;;
37701;SDS011;23548;51.196;6.838;2023-05-03T03:38:02;20.58;;;8.88;;
37701;SDS011;23548;51.196;6.838;2023-05-03T03:40:28;17.42;;;8.85;;
37701;SDS011;23548;51.196;6.838;2023-05-03T03:42:54;16.02;;;8.95;;
37701;SDS011;23548;51.196;6.838;2023-05-03T03:45:20;18.77;;;8.95;;
37701;SDS011;23548;51.196;6.838;2023-05-03T03:47:46;16.23;;;8.90;;
37701;SDS011;23548;51.196;6.838;2023-05-03T03:50:12;16.23;;;9.23;;
37701;SDS011;23548;51.196;6.838;2023-05-03T03:52:37;19.33;;;9.90;;
37701;SDS011;23548;51.196;6.838;2023-05-03T03:55:03;17.08;;;9.23;;
37701;SDS011;23548;51.196;6.838;2023-05-03T03:57:30;19.08;;;10.27;;
37701;SDS011;23548;51.196;6.838;2023-05-03T03:59:56;24.33;;;11.02;;
37701;SDS011;23548;51.196;6.838;2023-05-03T04:02:23;23.58;;;11.68;;
37701;SDS011;23548;51.196;6.838;2023-05-03T04:04:49;22.73;;;11.50;;
37701;SDS011;23548;51.196;6.838;2023-05-03T04:07:14;26.48;;;11.45;;
37701;SDS011;23548;51.196;6.838;2023-05-03T04:09:40;19.98;;;11.18;;
37701;SDS011;23548;51.196;6.838;2023-05-03T04:12:06;23.98;;;10.40;;
37701;SDS011;23548;51.196;6.838;2023-05-03T04:14:32;21.10;;;10.30;;
37701;SDS011;23548;51.196;6.838;2023-05-03T04:16:58;25.10;;;11.18;;
37701;SDS011;23548;51.196;6.838;2023-05-03T04:19:23;19.83;;;10.07;;
37701;SDS011;23548;51.196;6.838;2023-05-03T04:21:50;23.20;;;10.23;;
37701;SDS011;23548;51.196;6.838;2023-05-03T04:24:16;26.45;;;11.05;;
37701;SDS011;23548;51.196;6.838;2023-05-03T04:26:42;18.50;;;10.50;;
37701;SDS011;23548;51.196;6.838;2023-05-03T04:29:08;26.23;;;10.55;;
37701;SDS011;23548;51.196;6.838;2023-05-03T04:31:35;21.77;;;10.57;;
37701;SDS011;23548;51.196;6.838;2023-05-03T04:34:02;20.13;;;9.75;;
37701;SDS011;23548;51.196;6.838;2023-05-03T04:36:27;17.40;;;9.75;;
37701;SDS011;23548;51.196;6.838;2023-05-03T04:38:54;20.20;;;10.10;;
37701;SDS011;23548;51.196;6.838;2023-05-03T04:41:20;23.15;;;10.15;;
37701;SDS011;23548;51.196;6.838;2023-05-03T04:43:46;20.90;;;9.95;;
37701;SDS011;23548;51.196;6.838;2023-05-03T04:46:12;17.38;;;9.70;;
37701;SDS011;23548;51.196;6.838;2023-05-03T04:48:38;19.77;;;9.60;;
37701;SDS011;23548;51.196;6.838;2023-05-03T04:51:04;23.42;;;10.13;;
37701;SDS011;23548;51.196;6.838;2023-05-03T04:53:30;21.48;;;9.93;;
37701;SDS011;23548;51.196;6.838;2023-05-03T04:55:55;21.58;;;9.98;;
37701;SDS011;23548;51.196;6.838;2023-05-03T04:58:21;20.40;;;11.00;;
37701;SDS011;23548;51.196;6.838;2023-05-03T05:00:48;21.00;;;10.30;;
37701;SDS011;23548;51.196;6.838;2023-05-03T05:03:14;18.25;;;9.90;;
37701;SDS011;23548;51.196;6.838;2023-05-03T05:05:40;22.50;;;10.75;;
37701;SDS011;23548;51.196;6.838;2023-05-03T05:08:06;23.83;;;10.60;;
37701;SDS011;23548;51.196;6.838;2023-05-03T05:10:32;23.98;;;10.20;;
37701;SDS011;23548;51.196;6.838;2023-05-03T05:13:01;17.10;;;9.65;;
37701;SDS011;23548;51.196;6.838;2023-05-03T05:15:27;16.35;;;10.10;;
37701;SDS011;23548;51.196;6.838;2023-05-03T05:17:53;17.48;;;10.23;;
37701;SDS011;23548;51.196;6.838;2023-05-03T05:20:18;17.75;;;10.80;;
37701;SDS011;23548;51.196;6.838;2023-05-03T05:22:44;21.70;;;10.80;;
37701;SDS011;23548;51.196;6.838;2023-05-03T05:25:10;16.40;;;10.20;;
37701;SDS011;23548;51.196;6.838;2023-05-03T05:27:36;18.00;;;9.73;;
37701;SDS011;23548;51.196;6.838;2023-05-03T05:30:01;19.35;;;10.10;;
37701;SDS011;23548;51.196;6.838;2023-05-03T05:32:28;24.08;;;10.07;;
37701;SDS011;23548;51.196;6.838;2023-05-03T05:34:54;20.25;;;9.25;;
37701;SDS011;23548;51.196;6.838;2023-05-03T05:37:21;19.80;;;10.60;;
37701;SDS011;23548;51.196;6.838;2023-05-03T05:39:47;18.65;;;9.93;;
37701;SDS011;23548;51.196;6.838;2023-05-03T05:42:13;17.00;;;9.13;;
37701;SDS011;23548;51.196;6.838;2023-05-03T05:44:39;17.33;;;9.57;;
37701;SDS011;23548;51.196;6.838;2023-05-03T05:47:05;16.52;;;9.32;;
37701;SDS011;23548;51.196;6.838;2023-05-03T05:49:30;17.92;;;9.57;;
37701;SDS011;23548;51.196;6.838;2023-05-03T05:51:56;19.08;;;10.40;;
37701;SDS011;23548;51.196;6.838;2023-05-03T05:54:22;12.57;;;9.07;;
37701;SDS011;23548;51.196;6.838;2023-05-03T05:56:48;20.15;;;9.80;;
37701;SDS011;23548;51.196;6.838;2023-05-03T05:59:14;20.02;;;9.10;;
37701;SDS011;23548;51.196;6.838;2023-05-03T06:01:40;20.08;;;9.90;;
37701;SDS011;23548;51.196;6.838;2023-05-03T06:04:10;16.10;;;9.50;;
37701;SDS011;23548;51.196;6.838;2023-05-03T06:06:39;17.33;;;9.35;;
37701;SDS011;23548;51.196;6.838;2023-05-03T06:09:05;22.02;;;8.93;;
37701;SDS011;23548;51.196;6.838;2023-05-03T06:11:33;15.32;;;8.68;;
37701;SDS011;23548;51.196;6.838;2023-05-03T06:13:59;15.50;;;8.63;;
37701;SDS011;23548;51.196;6.838;2023-05-03T06:16:27;12.50;;;7.82;;
37701;SDS011;23548;51.196;6.838;2023-05-03T06:18:53;18.05;;;8.30;;
37701;SDS011;23548;51.196;6.838;2023-05-03T06:21:19;18.38;;;7.97;;
37701;SDS011;23548;51.196;6.838;2023-05-03T06:23:45;12.35;;;7.93;;
37701;SDS011;23548;51.196;6.838;2023-05-03T06:26:11;22.45;;;8.98;;
37701;SDS011;23548;51.196;6.838;2023-05-03T06:28:37;15.05;;;8.93;;
37701;SDS011;23548;51.196;6.838;2023-05-03T06:31:02;12.68;;;6.90;;
37701;SDS011;23548;51.196;6.838;2023-05-03T06:33:28;20.30;;;8.60;;
37701;SDS011;23548;51.196;6.838;2023-05-03T06:35:54;17.88;;;8.60;;
37701;SDS011;23548;51.196;6.838;2023-05-03T06:38:20;15.02;;;8.18;;
37701;SDS011;23548;51.196;6.838;2023-05-03T06:40:46;17.85;;;8.25;;
37701;SDS011;23548;51.196;6.838;2023-05-03T06:43:14;11.90;;;7.88;;
37701;SDS011;23548;51.196;6.838;2023-05-03T06:45:40;15.55;;;7.72;;
37701;SDS011;23548;51.196;6.838;2023-05-03T06:48:06;14.30;;;7.78;;
37701;SDS011;23548;51.196;6.838;2023-05-03T06:50:32;11.77;;;7.00;;
37701;SDS011;23548;51.196;6.838;2023-05-03T06:52:58;13.05;;;7.32;;
37701;SDS011;23548;51.196;6.838;2023-05-03T06:55:24;17.15;;;7.00;;
37701;SDS011;23548;51.196;6.838;2023-05-03T06:57:49;11.85;;;6.82;;
37701;SDS011;23548;51.196;6.838;2023-05-03T07:00:17;12.75;;;6.68;;
37701;SDS011;23548;51.196;6.838;2023-05-03T07:02:43;13.27;;;6.82;;
37701;SDS011;23548;51.196;6.838;2023-05-03T07:05:09;16.42;;;8.05;;
37701;SDS011;23548;51.196;6.838;2023-05-03T07:07:35;11.90;;;6.65;;
37701;SDS011;23548;51.196;6.838;2023-05-03T07:10:01;15.10;;;7.78;;
37701;SDS011;23548;51.196;6.838;2023-05-03T07:12:27;21.05;;;7.63;;
37701;SDS011;23548;51.196;6.838;2023-05-03T07:14:56;14.25;;;6.78;;
37701;SDS011;23548;51.196;6.838;2023-05-03T07:17:22;12.48;;;6.03;;
37701;SDS011;23548;51.196;6.838;2023-05-03T07:19:49;9.70;;;6.38;;
37701;SDS011;23548;51.196;6.838;2023-05-03T07:22:16;11.80;;;6.50;;
37701;SDS011;23548;51.196;6.838;2023-05-03T07:24:42;15.93;;;5.93;;
37701;SDS011;23548;51.196;6.838;2023-05-03T07:27:08;22.13;;;7.10;;
37701;SDS011;23548;51.196;6.838;2023-05-03T07:29:34;14.60;;;6.85;;
37701;SDS011;23548;51.196;6.838;2023-05-03T07:32:00;27.05;;;6.90;;
37701;SDS011;23548;51.196;6.838;2023-05-03T07:34:26;12.23;;;6.13;;
37701;SDS011;23548;51.196;6.838;2023-05-03T07:36:51;14.82;;;6.35;;
37701;SDS011;23548;51.196;6.838;2023-05-03T07:39:17;18.40;;;6.13;;
37701;SDS011;23548;51.196;6.838;2023-05-03T07:41:43;15.93;;;5.90;;
37701;SDS011;23548;51.196;6.838;2023-05-03T07:44:09;11.68;;;6.13;;
37701;SDS011;23548;51.196;6.838;2023-05-03T07:46:35;17.48;;;6.10;;
37701;SDS011;23548;51.196;6.838;2023-05-03T07:49:02;17.92;;;6.05;;
37701;SDS011;23548;51.196;6.838;2023-05-03T07:51:28;13.68;;;6.35;;
37701;SDS011;23548;51.196;6.838;2023-05-03T07:53:59;14.80;;;5.78;;
37701;SDS011;23548;51.196;6.838;2023-05-03T07:56:28;14.82;;;5.93;;
37701;SDS011;23548;51.196;6.838;2023-05-03T07:58:54;20.02;;;6.05;;
37701;SDS011;23548;51.196;6.838;2023-05-03T08:01:21;13.45;;;5.78;;
37701;SDS011;23548;51.196;6.838;2023-05-03T08:03:47;23.75;;;5.70;;
37701;SDS011;23548;51.196;6.838;2023-05-03T08:06:15;17.05;;;5.78;;
37701;SDS011;23548;51.196;6.838;2023-05-03T08:08:41;13.30;;;6.15;;
37701;SDS011;23548;51.196;6.838;2023-05-03T08:11:07;10.15;;;5.80;;
37701;SDS011;23548;51.196;6.838;2023-05-03T08:13:33;15.98;;;6.60;;
37701;SDS011;23548;51.196;6.838;2023-05-03T08:15:59;10.48;;;5.70;;
37701;SDS011;23548;51.196;6.838;2023-05-03T08:18:25;10.32;;;6.45;;
37701;SDS011;23548;51.196;6.838;2023-05-03T08:20:51;9.60;;;5.38;;
37701;SDS011;23548;51.196;6.838;2023-05-03T08:23:17;10.30;;;5.30;;
37701;SDS011;23548;51.196;6.838;2023-05-03T08:25:43;12.32;;;6.13;;
37701;SDS011;23548;51.196;6.838;2023-05-03T08:28:10;9.93;;;5.82;;
37701;SDS011;23548;51.196;6.838;2023-05-03T08:30:36;13.68;;;6.13;;
37701;SDS011;23548;51.196;6.838;2023-05-03T08:33:02;8.68;;;5.40;;
37701;SDS011;23548;51.196;6.838;2023-05-03T08:35:28;9.50;;;5.40;;
37701;SDS011;23548;51.196;6.838;2023-05-03T08:37:55;8.40;;;4.97;;
37701;SDS011;23548;51.196;6.838;2023-05-03T08:40:21;10.65;;;5.32;;
37701;SDS011;23548;51.196;6.838;2023-05-03T08:42:48;12.65;;;5.40;;
37701;SDS011;23548;51.196;6.838;2023-05-03T08:45:14;10.10;;;5.68;;
37701;SDS011;23548;51.196;6.838;2023-05-03T08:47:41;9.77;;;5.53;;
37701;SDS011;23548;51.196;6.838;2023-05-03T08:50:11;10.45;;;5.88;;
37701;SDS011;23548;51.196;6.838;2023-05-03T08:52:39;11.43;;;5.53;;
37701;SDS011;23548;51.196;6.838;2023-05-03T08:55:06;8.43;;;5.65;;
37701;SDS011;23548;51.196;6.838;2023-05-03T08:57:33;10.45;;;5.25;;
37701;SDS011;23548;51.196;6.838;2023-05-03T09:00:02;14.43;;;6.10;;
37701;SDS011;23548;51.196;6.838;2023-05-03T09:02:34;10.48;;;5.70;;
37701;SDS011;23548;51.196;6.838;2023-05-03T09:05:04;9.48;;;5.97;;
37701;SDS011;23548;51.196;6.838;2023-05-03T09:08:00;7.95;;;5.25;;
37701;SDS011;23548;51.196;6.838;2023-05-03T09:10:27;11.52;;;5.63;;
37701;SDS011;23548;51.196;6.838;2023-05-03T09:12:57;8.70;;;5.20;;
37701;SDS011;23548;51.196;6.838;2023-05-03T09:15:25;13.75;;;6.57;;
37701;SDS011;23548;51.196;6.838;2023-05-03T09:20:38;8.65;;;5.43;;
37701;SDS011;23548;51.196;6.838;2023-05-03T09:23:06;10.35;;;5.97;;
37701;SDS011;23548;51.196;6.838;2023-05-03T09:25:42;10.07;;;5.75;;
37701;SDS011;23548;51.196;6.838;2023-05-03T09:28:10;15.15;;;6.10;;
37701;SDS011;23548;51.196;6.838;2023-05-03T09:30:37;9.85;;;5.95;;
37701;SDS011;23548;51.196;6.838;2023-05-03T09:33:02;9.93;;;6.05;;
37701;SDS011;23548;51.196;6.838;2023-05-03T09:35:29;7.93;;;5.65;;
37701;SDS011;23548;51.196;6.838;2023-05-03T09:37:56;10.10;;;5.63;;
37701;SDS011;23548;51.196;6.838;2023-05-03T09:40:22;8.63;;;5.13;;
37701;SDS011;23548;51.196;6.838;2023-05-03T09:43:07;7.10;;;5.38;;
37701;SDS011;23548;51.196;6.838;2023-05-03T09:45:35;11.27;;;5.28;;
37701;SDS011;23548;51.196;6.838;2023-05-03T09:48:02;8.32;;;5.60;;
37701;SDS011;23548;51.196;6.838;2023-05-03T09:50:33;10.88;;;6.43;;
37701;SDS011;23548;51.196;6.838;2023-05-03T09:53:00;20.33;;;6.05;;
37701;SDS011;23548;51.196;6.838;2023-05-03T09:55:30;12.40;;;6.13;;
37701;SDS011;23548;51.196;6.838;2023-05-03T09:58:00;8.00;;;5.47;;
37701;SDS011;23548;51.196;6.838;2023-05-03T10:00:31;12.43;;;5.18;;
37701;SDS011;23548;51.196;6.838;2023-05-03T10:03:06;11.50;;;5.30;;
37701;SDS011;23548;51.196;6.838;2023-05-03T10:05:35;12.75;;;5.60;;
37701;SDS011;23548;51.196;6.838;2023-05-03T10:11:04;10.00;;;5.03;;
37701;SDS011;23548;51.196;6.838;2023-05-03T10:13:33;15.23;;;5.82;;
37701;SDS011;23548;51.196;6.838;2023-05-03T10:16:04;10.52;;;5.43;;
37701;SDS011;23548;51.196;6.838;2023-05-03T10:18:33;10.68;;;5.65;;
37701;SDS011;23548;51.196;6.838;2023-05-03T10:21:05;10.27;;;5.38;;
37701;SDS011;23548;51.196;6.838;2023-05-03T10:23:36;8.68;;;6.32;;
37701;SDS011;23548;51.196;6.838;2023-05-03T10:26:33;9.05;;;5.63;;
37701;SDS011;23548;51.196;6.838;2023-05-03T10:28:59;9.25;;;5.10;;
37701;SDS011;23548;51.196;6.838;2023-05-03T10:31:59;6.78;;;5.38;;
37701;SDS011;23548;51.196;6.838;2023-05-03T10:34:18;10.13;;;5.40;;
37701;SDS011;23548;51.196;6.838;2023-05-03T10:36:48;9.82;;;5.82;;
37701;SDS011;23548;51.196;6.838;2023-05-03T10:39:16;11.75;;;6.10;;
37701;SDS011;23548;51.196;6.838;2023-05-03T10:41:43;13.60;;;5.72;;
37701;SDS011;23548;51.196;6.838;2023-05-03T10:47:18;7.80;;;5.93;;
37701;SDS011;23548;51.196;6.838;2023-05-03T10:50:33;10.98;;;5.90;;
37701;SDS011;23548;51.196;6.838;2023-05-03T10:55:10;11.57;;;6.07;;
37701;SDS011;23548;51.196;6.838;2023-05-03T10:57:38;12.23;;;5.78;;
37701;SDS011;23548;51.196;6.838;2023-05-03T11:00:07;14.88;;;6.53;;
37701;SDS011;23548;51.196;6.838;2023-05-03T11:05:25;13.90;;;6.00;;
37701;SDS011;23548;51.196;6.838;2023-05-03T11:08:06;10.10;;;5.88;;
37701;SDS011;23548;51.196;6.838;2023-05-03T11:10:56;9.38;;;6.15;;
37701;SDS011;23548;51.196;6.838;2023-05-03T11:13:24;9.63;;;6.03;;
37701;SDS011;23548;51.196;6.838;2023-05-03T11:15:51;8.63;;;5.70;;
37701;SDS011;23548;51.196;6.838;2023-05-03T11:18:18;18.00;;;6.38;;
37701;SDS011;23548;51.196;6.838;2023-05-03T11:20:44;11.70;;;6.20;;
37701;SDS011;23548;51.196;6.838;2023-05-03T11:23:10;10.07;;;6.50;;
37701;SDS011;23548;51.196;6.838;2023-05-03T11:25:36;9.43;;;6.45;;
37701;SDS011;23548;51.196;6.838;2023-05-03T11:28:02;10.90;;;6.72;;
37701;SDS011;23548;51.196;6.838;2023-05-03T11:30:29;12.10;;;7.13;;
37701;SDS011;23548;51.196;6.838;2023-05-03T11:32:58;13.13;;;6.78;;
37701;SDS011;23548;51.196;6.838;2023-05-03T11:35:27;22.13;;;7.55;;
37701;SDS011;23548;51.196;6.838;2023-05-03T11:37:53;10.05;;;6.45;;
37701;SDS011;23548;51.196;6.838;2023-05-03T11:40:20;9.43;;;6.80;;
37701;SDS011;23548;51.196;6.838;2023-05-03T11:42:49;9.52;;;6.70;;
37701;SDS011;23548;51.196;6.838;2023-05-03T11:45:16;13.45;;;7.25;;
37701;SDS011;23548;51.196;6.838;2023-05-03T11:47:43;10.93;;;6.88;;
37701;SDS011;23548;51.196;6.838;2023-05-03T11:50:09;11.65;;;7.53;;
37701;SDS011;23548;51.196;6.838;2023-05-03T11:52:35;11.52;;;6.82;;
37701;SDS011;23548;51.196;6.838;2023-05-03T11:55:02;11.13;;;6.43;;
37701;SDS011;23548;51.196;6.838;2023-05-03T11:57:30;12.63;;;7.40;;
37701;SDS011;23548;51.196;6.838;2023-05-03T12:00:08;10.82;;;6.28;;
37701;SDS011;23548;51.196;6.838;2023-05-03T12:02:42;10.43;;;6.10;;
37701;SDS011;23548;51.196;6.838;2023-05-03T12:05:08;11.65;;;6.38;;
37701;SDS011;23548;51.196;6.838;2023-05-03T12:07:37;14.77;;;6.97;;
37701;SDS011;23548;51.196;6.838;2023-05-03T12:10:16;10.57;;;6.75;;
37701;SDS011;23548;51.196;6.838;2023-05-03T12:12:55;11.35;;;7.38;;
37701;SDS011;23548;51.196;6.838;2023-05-03T12:15:29;10.55;;;7.47;;
37701;SDS011;23548;51.196;6.838;2023-05-03T12:17:59;11.40;;;7.28;;
37701;SDS011;23548;51.196;6.838;2023-05-03T12:20:27;9.35;;;6.78;;
37701;SDS011;23548;51.196;6.838;2023-05-03T12:23:00;12.27;;;7.03;;
37701;SDS011;23548;51.196;6.838;2023-05-03T12:25:32;8.50;;;6.65;;
37701;SDS011;23548;51.196;6.838;2023-05-03T12:28:01;9.43;;;6.50;;
37701;SDS011;23548;51.196;6.838;2023-05-03T12:30:28;10.00;;;5.57;;
37701;SDS011;23548;51.196;6.838;2023-05-03T12:32:54;13.10;;;6.20;;
37701;SDS011;23548;51.196;6.838;2023-05-03T12:35:20;9.70;;;6.45;;
37701;SDS011;23548;51.196;6.838;2023-05-03T12:37:46;11.85;;;6.70;;
37701;SDS011;23548;51.196;6.838;2023-05-03T12:40:13;12.60;;;6.90;;
37701;SDS011;23548;51.196;6.838;2023-05-03T12:42:40;9.15;;;6.55;;
37701;SDS011;23548;51.196;6.838;2023-05-03T12:45:07;15.00;;;6.90;;
37701;SDS011;23548;51.196;6.838;2023-05-03T12:47:33;12.75;;;7.03;;
37701;SDS011;23548;51.196;6.838;2023-05-03T12:50:01;9.80;;;6.40;;
37701;SDS011;23548;51.196;6.838;2023-05-03T12:52:27;9.32;;;6.32;;
37701;SDS011;23548;51.196;6.838;2023-05-03T12:54:55;10.32;;;6.07;;
37701;SDS011;23548;51.196;6.838;2023-05-03T12:57:22;9.35;;;6.15;;
37701;SDS011;23548;51.196;6.838;2023-05-03T12:59:48;10.63;;;6.25;;
37701;SDS011;23548;51.196;6.838;2023-05-03T13:02:17;11.82;;;6.30;;
37701;SDS011;23548;51.196;6.838;2023-05-03T13:04:44;10.13;;;6.47;;
37701;SDS011;23548;51.196;6.838;2023-05-03T13:07:10;9.95;;;5.45;;
37701;SDS011;23548;51.196;6.838;2023-05-03T13:09:38;11.82;;;5.57;;
37701;SDS011;23548;51.196;6.838;2023-05-03T13:12:05;10.13;;;6.07;;
37701;SDS011;23548;51.196;6.838;2023-05-03T13:14:30;12.77;;;6.10;;
37701;SDS011;23548;51.196;6.838;2023-05-03T13:16:56;9.45;;;5.32;;
37701;SDS011;23548;51.196;6.838;2023-05-03T13:19:24;6.63;;;5.35;;
37701;SDS011;23548;51.196;6.838;2023-05-03T13:21:50;10.73;;;5.88;;
37701;SDS011;23548;51.196;6.838;2023-05-03T13:24:15;10.85;;;5.97;;
37701;SDS011;23548;51.196;6.838;2023-05-03T13:26:41;9.07;;;5.75;;
37701;SDS011;23548;51.196;6.838;2023-05-03T13:29:07;8.88;;;5.85;;
37701;SDS011;23548;51.196;6.838;2023-05-03T13:31:33;8.55;;;5.05;;
37701;SDS011;23548;51.196;6.838;2023-05-03T13:33:59;12.23;;;5.05;;
37701;SDS011;23548;51.196;6.838;2023-05-03T13:36:25;13.02;;;5.45;;
37701;SDS011;23548;51.196;6.838;2023-05-03T13:38:54;13.60;;;6.05;;
37701;SDS011;23548;51.196;6.838;2023-05-03T13:41:23;8.50;;;5.50;;
37701;SDS011;23548;51.196;6.838;2023-05-03T13:43:48;15.82;;;5.78;;
37701;SDS011;23548;51.196;6.838;2023-05-03T13:46:14;8.77;;;5.32;;
37701;SDS011;23548;51.196;6.838;2023-05-03T13:48:43;9.70;;;5.90;;
37701;SDS011;23548;51.196;6.838;2023-05-03T13:51:09;9.18;;;5.45;;
37701;SDS011;23548;51.196;6.838;2023-05-03T13:53:36;7.38;;;4.80;;
37701;SDS011;23548;51.196;6.838;2023-05-03T13:56:03;8.73;;;5.90;;
37701;SDS011;23548;51.196;6.838;2023-05-03T13:58:30;15.13;;;5.60;;
37701;SDS011;23548;51.196;6.838;2023-05-03T14:00:56;14.75;;;5.70;;
37701;SDS011;23548;51.196;6.838;2023-05-03T14:03:21;14.57;;;5.63;;
37701;SDS011;23548;51.196;6.838;2023-05-03T14:05:48;8.27;;;5.25;;
37701;SDS011;23548;51.196;6.838;2023-05-03T14:08:14;9.55;;;5.72;;
37701;SDS011;23548;51.196;6.838;2023-05-03T14:10:43;8.65;;;5.57;;
37701;SDS011;23548;51.196;6.838;2023-05-03T14:13:08;10.00;;;6.05;;
37701;SDS011;23548;51.196;6.838;2023-05-03T14:15:41;10.70;;;5.70;;
37701;SDS011;23548;51.196;6.838;2023-05-03T14:18:08;12.02;;;5.35;;
37701;SDS011;23548;51.196;6.838;2023-05-03T14:20:34;8.48;;;6.20;;
37701;SDS011;23548;51.196;6.838;2023-05-03T14:23:00;10.32;;;6.25;;
37701;SDS011;23548;51.196;6.838;2023-05-03T14:25:27;8.30;;;5.68;;
37701;SDS011;23548;51.196;6.838;2023-05-03T14:27:54;10.50;;;5.78;;
37701;SDS011;23548;51.196;6.838;2023-05-03T14:30:20;9.77;;;5.80;;
37701;SDS011;23548;51.196;6.838;2023-05-03T14:32:46;9.93;;;5.53;;
37701;SDS011;23548;51.196;6.838;2023-05-03T14:35:15;10.35;;;5.43;;
37701;SDS011;23548;51.196;6.838;2023-05-03T14:37:44;14.13;;;5.85;;
37701;SDS011;23548;51.196;6.838;2023-05-03T14:40:11;7.57;;;4.95;;
37701;SDS011;23548;51.196;6.838;2023-05-03T14:42:37;13.85;;;6.22;;
37701;SDS011;23548;51.196;6.838;2023-05-03T14:45:03;8.73;;;5.40;;
37701;SDS011;23548;51.196;6.838;2023-05-03T14:47:30;9.95;;;5.90;;
37701;SDS011;23548;51.196;6.838;2023-05-03T14:49:56;10.43;;;5.53;;
37701;SDS011;23548;51.196;6.838;2023-05-03T14:52:22;23.15;;;5.70;;
37701;SDS011;23548;51.196;6.838;2023-05-03T14:54:47;7.38;;;5.10;;
37701;SDS011;23548;51.196;6.838;2023-05-03T14:57:14;9.10;;;6.22;;
37701;SDS011;23548;51.196;6.838;2023-05-03T14:59:39;9.25;;;5.90;;
37701;SDS011;23548;51.196;6.838;2023-05-03T15:02:05;8.80;;;6.20;;
37701;SDS011;23548;51.196;6.838;2023-05-03T15:04:31;16.77;;;5.65;;
37701;SDS011;23548;51.196;6.838;2023-05-03T15:07:00;9.02;;;5.80;;